Vertentes, Brazil
Current Conditions -  °F | °C
As of 9:00 AM on Monday 24 Nov 2014 (Local Time) from SBKG Reporting Station
Scattered Clouds Scattered Clouds  
Wind Chill: 77°   Ceiling: Unl
Heat Index: 79°   Visibility: 6mi
Dew Point: 66°   Wind: 13mph
Humidity: 69%   Direction: 90°E
Pressure: 30.06"   Gusts: NA
Location:  7.9°S, 35.99°W
Report Text: SBKG 241200Z 09011KT 9999 SCT030 25/19 Q1018
Loading
Personal Weather Stations






























Interactive Weather Map New forecast layout! Learn more

10-Day Weather Forecast

Advertisements
Track Severe Weather on mobile